Time;durP1;ratioP1;P1;durP2;ratioP2;P2;SDS_P1;SDS_P2;PMS_P1;PMS_P2;Temp;Humidity;BMP_temperature;BMP_pressure;BME280_temperature;BME280_humidity;BME280_pressure;Samples;Min_cycle;Max_cycle;Signal;HPM_P1;HPM_P2
2023/05/07 00:02:07;15881.00;0.05;28.14;0.00;0.00;0.62;;;;;18.70;1.00;;;;;;2550583;56;1623;-85
2023/05/07 00:04:37;104629.00;0.35;181.56;0.00;0.00;0.62;;;;;18.80;1.00;;;;;;2552713;56;1330;-85
2023/05/07 00:07:04;29489.00;0.10;51.70;0.00;0.00;0.62;;;;;18.90;1.00;;;;;;2550475;56;1108;-85
2023/05/07 00:09:31;78240.00;0.26;136.00;0.00;0.00;0.62;;;;;18.80;1.00;;;;;;2550477;56;1953;-84
2023/05/07 00:11:58;19167.00;0.06;33.83;0.00;0.00;0.62;;;;;18.80;1.00;;;;;;2550760;56;1104;-83
2023/05/07 00:14:24;39142.00;0.13;68.40;0.00;0.00;0.62;;;;;18.80;1.00;;;;;;2550803;56;1302;-85
2023/05/07 00:16:51;394715.00;1.32;680.72;22340.00;0.07;39.32;;;;;18.60;1.00;;;;;;2550811;56;1162;-86
2023/05/07 00:19:18;210293.00;0.70;363.64;13964.00;0.05;24.82;;;;;18.40;1.00;;;;;;2550869;56;1072;-85
2023/05/07 00:21:46;50987.00;0.17;88.89;0.00;0.00;0.62;;;;;18.60;1.00;;;;;;2550597;56;1044;-85
2023/05/07 00:24:13;268236.00;0.89;463.31;60365.00;0.20;105.11;;;;;18.50;1.00;;;;;;2550762;56;1364;-84
2023/05/07 00:26:40;44170.00;0.15;77.10;0.00;0.00;0.62;;;;;18.50;1.00;;;;;;2550622;56;970;-84
2023/05/07 00:29:07;160523.00;0.54;277.94;46887.00;0.16;81.80;;;;;18.50;1.00;;;;;;2550791;56;1944;-85
2023/05/07 00:31:34;41832.00;0.14;73.06;0.00;0.00;0.62;;;;;18.50;1.00;;;;;;2550778;56;1060;-85
2023/05/07 00:34:01;93666.00;0.31;162.64;7106.00;0.02;12.93;;;;;18.50;1.00;;;;;;2550795;56;1358;-84
2023/05/07 00:36:27;70860.00;0.24;123.25;0.00;0.00;0.62;;;;;18.60;1.00;;;;;;2550762;56;1057;-85
2023/05/07 00:38:57;49155.00;0.16;85.72;0.00;0.00;0.62;;;;;18.50;1.00;;;;;;2550793;56;1125;-85
2023/05/07 00:41:24;10264.00;0.03;18.41;0.00;0.00;0.62;;;;;18.60;1.00;;;;;;2550705;56;1123;-84
2023/05/07 00:43:52;126726.00;0.42;219.68;0.00;0.00;0.62;;;;;18.60;1.00;;;;;;2550692;56;1293;-85
2023/05/07 00:46:22;111975.00;0.37;194.24;32577.00;0.11;57.04;;;;;18.50;1.00;;;;;;2550839;56;1065;-85
2023/05/07 00:48:50;50540.00;0.17;88.12;0.00;0.00;0.62;;;;;18.20;1.00;;;;;;2552963;56;1952;-85
2023/05/07 00:51:18;74251.00;0.25;129.11;0.00;0.00;0.62;;;;;18.30;1.00;;;;;;2550865;56;969;-84
2023/05/07 00:53:45;28794.00;0.10;50.50;0.00;0.00;0.62;;;;;18.30;1.00;;;;;;2550739;56;1363;-84
2023/05/07 00:56:13;38494.00;0.13;67.28;0.00;0.00;0.62;;;;;18.40;1.00;;;;;;2550661;56;1182;-85
2023/05/07 00:58:41;112189.00;0.37;194.61;20580.00;0.07;36.27;;;;;18.50;1.00;;;;;;2550764;56;1132;-84
2023/05/07 01:01:08;304511.00;1.02;525.67;47152.00;0.16;82.26;;;;;18.50;1.00;;;;;;2550733;56;1110;-85
2023/05/07 01:03:35;52559.00;0.18;91.61;0.00;0.00;0.62;;;;;18.40;1.00;;;;;;2552848;56;1316;-84
2023/05/07 01:06:04;13449.00;0.04;23.92;0.00;0.00;0.62;;;;;18.20;1.00;;;;;;2550680;56;1133;-84
2023/05/07 01:08:34;114867.00;0.38;199.23;0.00;0.00;0.62;;;;;18.20;1.00;;;;;;2550634;56;1128;-85
2023/05/07 01:11:02;108823.00;0.36;188.80;0.00;0.00;0.62;;;;;18.10;1.00;;;;;;2550725;56;1999;-85
2023/05/07 01:13:32;201500.00;0.67;348.51;0.00;0.00;0.62;;;;;17.90;1.00;;;;;;2552765;56;1315;-85
2023/05/07 01:15:59;384694.00;1.28;663.49;67715.00;0.23;117.81;;;;;18.10;1.00;;;;;;2552905;56;1015;-85
2023/05/07 01:18:26;0.00;0.00;0.62;0.00;0.00;0.62;;;;;18.10;1.00;;;;;;2550639;56;1037;-85
2023/05/07 01:20:53;83130.00;0.28;144.44;17488.00;0.06;30.92;;;;;18.10;1.00;;;;;;2550744;56;1380;-85
2023/05/07 01:23:22;6139.00;0.02;11.26;0.00;0.00;0.62;;;;;17.90;1.00;;;;;;2550657;56;1349;-84
2023/05/07 01:25:53;54798.00;0.18;95.48;0.00;0.00;0.62;;;;;18.00;1.00;;;;;;2550662;56;1629;-84
2023/05/07 01:28:19;115173.00;0.38;199.76;0.00;0.00;0.62;;;;;18.10;1.00;;;;;;2550637;56;1139;-84
2023/05/07 01:30:50;70262.00;0.23;122.21;0.00;0.00;0.62;;;;;18.20;1.00;;;;;;2552749;56;1958;-85
2023/05/07 01:33:21;64060.00;0.21;111.49;0.00;0.00;0.62;;;;;18.10;1.00;;;;;;2550502;56;1344;-84
2023/05/07 01:35:52;107937.00;0.36;187.27;0.00;0.00;0.62;;;;;17.90;1.00;;;;;;2550678;56;1148;-84
2023/05/07 01:38:21;4587.00;0.02;8.57;0.00;0.00;0.62;;;;;17.70;1.00;;;;;;2550771;56;1123;-84
2023/05/07 01:40:48;51312.00;0.17;89.46;0.00;0.00;0.62;;;;;17.50;1.00;;;;;;2550744;56;1181;-85
2023/05/07 01:43:15;29157.00;0.10;51.12;0.00;0.00;0.62;;;;;17.40;1.00;;;;;;2550662;56;1235;-84
2023/05/07 01:45:44;62791.00;0.21;109.30;0.00;0.00;0.62;;;;;17.50;1.00;;;;;;2552824;56;1087;-83
2023/05/07 01:48:12;70676.00;0.24;122.93;0.00;0.00;0.62;;;;;17.50;1.00;;;;;;2552802;56;1091;-85
2023/05/07 01:50:40;276226.00;0.92;477.05;44940.00;0.15;78.43;;;;;17.60;1.00;;;;;;2552866;56;1894;-85
2023/05/07 01:53:07;152823.00;0.51;264.67;54756.00;0.18;95.41;;;;;17.60;1.00;;;;;;2550688;56;1361;-84
2023/05/07 01:55:36;37984.00;0.13;66.40;0.00;0.00;0.62;;;;;17.80;1.00;;;;;;2550684;56;1262;-85
2023/05/07 01:58:03;38589.00;0.13;67.45;0.00;0.00;0.62;;;;;17.90;1.00;;;;;;2550708;56;970;-85
2023/05/07 02:00:30;39045.00;0.13;68.24;0.00;0.00;0.62;;;;;17.80;1.00;;;;;;2550690;56;1156;-84
2023/05/07 02:02:57;366573.00;1.22;632.35;94132.00;0.31;163.44;;;;;17.80;1.00;;;;;;2550742;56;1307;-84
2023/05/07 02:05:24;0.00;0.00;0.62;0.00;0.00;0.62;;;;;17.60;1.00;;;;;;2550690;56;1088;-85
2023/05/07 02:07:51;48711.00;0.16;84.96;0.00;0.00;0.62;;;;;17.70;1.00;;;;;;2550497;56;1061;-85
2023/05/07 02:10:17;160251.00;0.53;277.47;38734.00;0.13;67.70;;;;;17.80;1.00;;;;;;2550515;56;1948;-87
2023/05/07 02:12:46;30167.00;0.10;52.87;0.00;0.00;0.62;;;;;17.70;1.00;;;;;;2550609;56;1119;-84
2023/05/07 02:15:13;123753.00;0.41;214.56;0.00;0.00;0.62;;;;;17.80;1.00;;;;;;2552868;56;1549;-83
2023/05/07 02:17:58;178766.00;0.60;309.36;35152.00;0.12;61.50;;;;;17.60;1.00;;;;;;2550709;56;1062;-85
2023/05/07 02:20:25;72747.00;0.24;126.51;0.00;0.00;0.62;;;;;17.60;1.00;;;;;;2550741;56;1087;-85
2023/05/07 02:22:53;15802.00;0.05;28.00;0.00;0.00;0.62;;;;;17.40;1.00;;;;;;2550676;56;1273;-85
2023/05/07 02:25:20;78728.00;0.26;136.84;0.00;0.00;0.62;;;;;17.50;1.00;;;;;;2552814;56;1171;-86
2023/05/07 02:27:48;135451.00;0.45;234.73;0.00;0.00;0.62;;;;;17.50;1.00;;;;;;2550715;56;1127;-85
2023/05/07 02:30:16;53023.00;0.18;92.41;0.00;0.00;0.62;;;;;17.50;1.00;;;;;;2552847;56;1958;-85
2023/05/07 02:32:42;44997.00;0.15;78.53;0.00;0.00;0.62;;;;;17.40;1.00;;;;;;2550746;56;1080;-85
2023/05/07 02:35:09;28489.00;0.09;49.97;0.00;0.00;0.62;;;;;17.20;1.00;;;;;;2552741;56;1337;-85
2023/05/07 02:37:36;275450.00;0.92;475.71;42856.00;0.14;74.83;;;;;17.20;1.00;;;;;;2552856;56;1064;-85
2023/05/07 02:40:04;196210.00;0.65;339.40;16741.00;0.06;29.63;;;;;17.10;1.00;;;;;;2550723;56;1029;-84
2023/05/07 02:42:31;66385.00;0.22;115.51;0.00;0.00;0.62;;;;;17.10;1.00;;;;;;2552218;56;2184;-85
2023/05/07 02:44:59;168224.00;0.56;291.21;0.00;0.00;0.62;;;;;17.20;1.00;;;;;;2550493;56;1294;-87
2023/05/07 02:47:28;13470.00;0.04;23.96;0.00;0.00;0.62;;;;;17.00;1.00;;;;;;2552827;56;1047;-85
2023/05/07 02:49:55;135834.00;0.45;235.39;0.00;0.00;0.62;;;;;17.00;1.00;;;;;;2550461;56;1948;-85
2023/05/07 02:52:22;187077.00;0.62;323.68;57726.00;0.19;100.55;;;;;17.00;1.00;;;;;;2550664;56;1251;-84
2023/05/07 02:54:49;412499.00;1.37;711.29;68037.00;0.23;118.37;;;;;17.00;1.00;;;;;;2550619;56;1379;-84
2023/05/07 02:57:16;11333.00;0.04;20.26;0.00;0.00;0.62;;;;;16.90;1.00;;;;;;2550708;56;1115;-85
2023/05/07 02:59:43;131238.00;0.44;227.46;0.00;0.00;0.62;;;;;16.90;1.00;;;;;;2550730;56;1201;-85
2023/05/07 03:02:11;44576.00;0.15;77.80;0.00;0.00;0.62;;;;;16.80;1.00;;;;;;2550656;56;1051;-85
2023/05/07 03:04:39;13015.00;0.04;23.17;0.00;0.00;0.62;;;;;16.90;1.00;;;;;;2551013;56;1265;-84
2023/05/07 03:07:06;745.00;0.00;1.91;0.00;0.00;0.62;;;;;16.90;1.00;;;;;;2551032;56;1136;-85
2023/05/07 03:09:33;13290.00;0.04;23.65;0.00;0.00;0.62;;;;;16.80;1.00;;;;;;2553137;56;1949;-83
2023/05/07 03:12:01;107068.00;0.36;185.77;33820.00;0.11;59.19;;;;;16.70;1.00;;;;;;2551012;56;1085;-84
2023/05/07 03:14:28;0.00;0.00;0.62;0.00;0.00;0.62;;;;;17.10;1.00;;;;;;2551017;56;1292;-84
2023/05/07 03:16:55;61343.00;0.20;106.80;0.00;0.00;0.62;;;;;17.00;1.00;;;;;;2551031;56;1121;-84
2023/05/07 03:19:23;23556.00;0.08;41.43;0.00;0.00;0.62;;;;;16.80;1.00;;;;;;2553194;56;1040;-84
2023/05/07 03:21:50;9240.00;0.03;16.63;0.00;0.00;0.62;;;;;16.70;1.00;;;;;;2551079;56;1024;-85
2023/05/07 03:24:17;35239.00;0.12;61.65;0.00;0.00;0.62;;;;;16.60;1.00;;;;;;2550999;56;1284;-84
2023/05/07 03:26:43;8066.00;0.03;14.60;0.00;0.00;0.62;;;;;16.60;1.00;;;;;;2551001;56;1071;-84
2023/05/07 03:29:10;41337.00;0.14;72.20;0.00;0.00;0.62;;;;;16.40;1.00;;;;;;2553050;56;1575;-86
2023/05/07 03:31:37;281510.00;0.94;486.13;97253.00;0.32;168.83;;;;;16.30;1.00;;;;;;2550944;56;1958;-84
2023/05/07 03:34:05;49263.00;0.16;85.91;0.00;0.00;0.62;;;;;16.40;1.00;;;;;;2550922;56;1366;-85
2023/05/07 03:36:34;34781.00;0.12;60.86;0.00;0.00;0.62;;;;;16.40;1.00;;;;;;2553178;56;964;-84
2023/05/07 03:39:00;3612.00;0.01;6.88;0.00;0.00;0.62;;;;;16.70;1.00;;;;;;2551005;56;1122;-84
2023/05/07 03:41:29;19790.00;0.07;34.91;0.00;0.00;0.62;;;;;16.90;1.00;;;;;;2550891;56;1104;-84
2023/05/07 03:43:56;405.00;0.00;1.32;0.00;0.00;0.62;;;;;17.00;1.00;;;;;;2550795;56;1883;-85
2023/05/07 03:46:25;27759.00;0.09;48.70;0.00;0.00;0.62;;;;;16.80;1.00;;;;;;2550936;56;1120;-85
2023/05/07 03:48:52;18100.00;0.06;31.98;0.00;0.00;0.62;;;;;16.80;1.00;;;;;;2553281;56;1634;-84
2023/05/07 03:51:19;252138.00;0.84;435.63;57502.00;0.19;100.16;;;;;16.90;1.00;;;;;;2551087;56;1958;-85
2023/05/07 03:53:47;269227.00;0.90;465.01;36005.00;0.12;62.98;;;;;16.80;1.00;;;;;;2551069;56;1347;-82
2023/05/07 03:56:14;259967.00;0.87;449.09;45691.00;0.15;79.73;;;;;16.70;1.00;;;;;;2551135;56;1135;-84
2023/05/07 03:58:41;14342.00;0.05;25.47;0.00;0.00;0.62;;;;;16.70;1.00;;;;;;2551214;56;1060;-84
2023/05/07 04:01:08;48962.00;0.16;85.39;0.00;0.00;0.62;;;;;16.70;1.00;;;;;;2553280;56;1150;-85
2023/05/07 04:03:35;39934.00;0.13;69.77;0.00;0.00;0.62;;;;;16.70;1.00;;;;;;2553302;56;1295;-84
2023/05/07 04:06:02;128379.00;0.43;222.53;38216.00;0.13;66.80;;;;;16.80;1.00;;;;;;2553342;56;960;-84
2023/05/07 04:08:29;19787.00;0.07;34.90;0.00;0.00;0.62;;;;;16.60;1.00;;;;;;2551020;56;1073;-85
2023/05/07 04:10:57;67244.00;0.22;117.00;0.00;0.00;0.62;;;;;16.70;1.00;;;;;;2553219;56;2248;-84
2023/05/07 04:13:24;69619.00;0.23;121.10;0.00;0.00;0.62;;;;;16.60;1.00;;;;;;2551111;56;1384;-84
2023/05/07 04:15:51;51772.00;0.17;90.25;0.00;0.00;0.62;;;;;16.50;1.00;;;;;;2551165;56;1116;-84
2023/05/07 04:18:18;49543.00;0.17;86.40;0.00;0.00;0.62;;;;;16.80;1.00;;;;;;2551140;56;1091;-84
2023/05/07 04:20:45;36642.00;0.12;64.08;0.00;0.00;0.62;;;;;16.90;1.00;;;;;;2551061;56;1106;-84
2023/05/07 04:23:12;233393.00;0.78;403.39;55957.00;0.19;97.49;;;;;16.70;1.00;;;;;;2551167;56;1355;-84
2023/05/07 04:25:39;7052.00;0.02;12.84;0.00;0.00;0.62;;;;;16.70;1.00;;;;;;2551078;56;1060;-85
2023/05/07 04:28:07;19427.00;0.06;34.28;0.00;0.00;0.62;;;;;16.80;1.00;;;;;;2551159;56;1088;-84
2023/05/07 04:30:34;125146.00;0.42;216.96;0.00;0.00;0.62;;;;;16.60;1.00;;;;;;2550911;56;1907;-84
2023/05/07 04:33:01;11466.00;0.04;20.49;0.00;0.00;0.62;;;;;16.40;1.00;;;;;;2551145;56;1346;-86
2023/05/07 04:35:27;84152.00;0.28;146.21;0.00;0.00;0.62;;;;;16.50;1.00;;;;;;2550973;56;1108;-85
2023/05/07 04:37:54;87062.00;0.29;151.23;0.00;0.00;0.62;;;;;16.40;1.00;;;;;;2551001;56;1049;-84
2023/05/07 04:40:21;129104.00;0.43;223.78;38632.00;0.13;67.52;;;;;16.40;1.00;;;;;;2551088;56;1143;-84
2023/05/07 04:42:48;209694.00;0.70;362.61;0.00;0.00;0.62;;;;;16.60;1.00;;;;;;2551022;56;1356;-84
2023/05/07 04:45:17;10301.00;0.03;18.47;0.00;0.00;0.62;;;;;16.60;1.00;;;;;;2551040;56;1075;-85
2023/05/07 04:47:43;106137.00;0.35;184.16;0.00;0.00;0.62;;;;;16.90;1.00;;;;;;2551087;56;1116;-85
2023/05/07 04:50:11;10212.00;0.03;18.32;0.00;0.00;0.62;;;;;17.10;1.00;;;;;;2551018;56;1956;-85
2023/05/07 04:52:38;10329.00;0.03;18.52;0.00;0.00;0.62;;;;;17.20;1.00;;;;;;2550989;56;1130;-85
2023/05/07 04:55:05;78973.00;0.26;137.26;0.00;0.00;0.62;;;;;17.20;1.00;;;;;;2551005;56;1384;-84
2023/05/07 04:57:32;216126.00;0.72;373.68;0.00;0.00;0.62;;;;;17.40;1.00;;;;;;2551034;56;1127;-85
2023/05/07 04:59:59;127558.00;0.43;221.12;0.00;0.00;0.62;;;;;17.50;1.00;;;;;;2553192;56;1138;-85
2023/05/07 05:02:27;61713.00;0.21;107.44;0.00;0.00;0.62;;;;;17.50;1.00;;;;;;2551030;56;1084;-85
2023/05/07 05:04:54;260563.00;0.87;450.12;70105.00;0.23;121.94;;;;;17.60;1.00;;;;;;2551025;56;1373;-84
2023/05/07 05:07:21;11236.00;0.04;20.09;0.00;0.00;0.62;;;;;17.60;1.00;;;;;;2553098;56;2141;-85
2023/05/07 05:09:48;72158.00;0.24;125.49;0.00;0.00;0.62;;;;;17.70;1.00;;;;;;2550644;56;962;-84
2023/05/07 05:12:15;193762.00;0.65;335.19;57337.00;0.19;99.87;;;;;17.80;1.00;;;;;;2550970;56;1954;-85
2023/05/07 05:14:42;53590.00;0.18;93.39;0.00;0.00;0.62;;;;;17.50;1.00;;;;;;2551034;56;1273;-85
2023/05/07 05:17:09;82402.00;0.27;143.19;0.00;0.00;0.62;;;;;17.80;1.00;;;;;;2551029;56;1130;-85
2023/05/07 05:19:37;6531.00;0.02;11.94;0.00;0.00;0.62;;;;;18.10;1.00;;;;;;2553198;56;944;-85
2023/05/07 05:22:04;29413.00;0.10;51.57;0.00;0.00;0.62;;;;;18.30;1.00;;;;;;2550858;56;1138;-85
2023/05/07 05:24:31;10845.00;0.04;19.41;0.00;0.00;0.62;;;;;18.20;1.00;;;;;;2550665;56;1342;-84
2023/05/07 05:26:59;119116.00;0.40;206.56;11175.00;0.04;19.98;;;;;18.20;1.00;;;;;;2550987;56;1262;-85
2023/05/07 05:29:26;13021.00;0.04;23.18;0.00;0.00;0.62;;;;;18.30;1.00;;;;;;2550778;56;1112;-84
2023/05/07 05:31:53;0.00;0.00;0.62;0.00;0.00;0.62;;;;;18.80;1.00;;;;;;2550925;56;1903;-84
2023/05/07 05:34:21;84136.00;0.28;146.18;0.00;0.00;0.62;;;;;19.80;1.00;;;;;;2550955;56;1353;-85
2023/05/07 05:36:49;18002.00;0.06;31.81;0.00;0.00;0.62;;;;;21.10;1.00;;;;;;2550943;56;1132;-85
2023/05/07 05:39:16;15374.00;0.05;27.26;0.00;0.00;0.62;;;;;23.10;1.00;;;;;;2550857;56;1169;-85
2023/05/07 05:41:43;0.00;0.00;0.62;0.00;0.00;0.62;;;;;23.90;1.00;;;;;;2550693;56;1116;-85
2023/05/07 05:44:10;0.00;0.00;0.62;0.00;0.00;0.62;;;;;25.10;1.00;;;;;;2550878;56;1315;-85
2023/05/07 05:46:37;61154.00;0.20;106.47;0.00;0.00;0.62;;;;;25.90;1.00;;;;;;2550948;56;948;-85
2023/05/07 05:49:03;13998.00;0.05;24.88;0.00;0.00;0.62;;;;;26.00;1.00;;;;;;2550979;56;1061;-85
2023/05/07 05:51:30;0.00;0.00;0.62;0.00;0.00;0.62;;;;;26.40;1.00;;;;;;2553119;56;2263;-86
2023/05/07 05:53:58;12016.00;0.04;21.44;0.00;0.00;0.62;;;;;26.60;1.00;;;;;;2553063;56;1340;-84
2023/05/07 05:56:25;40800.00;0.14;71.27;0.00;0.00;0.62;;;;;27.90;1.00;;;;;;2551002;56;1084;-84
2023/05/07 05:58:52;0.00;0.00;0.62;0.00;0.00;0.62;;;;;28.00;1.00;;;;;;2550953;56;1049;-84
2023/05/07 06:01:20;38510.00;0.13;67.31;0.00;0.00;0.62;;;;;28.00;1.00;;;;;;2553239;56;1075;-84
2023/05/07 06:03:47;0.00;0.00;0.62;0.00;0.00;0.62;;;;;27.50;1.00;;;;;;2551056;56;1394;-84
2023/05/07 06:06:14;0.00;0.00;0.62;0.00;0.00;0.62;;;;;27.30;1.00;;;;;;2550815;56;1139;-84
2023/05/07 06:08:41;109857.00;0.37;190.58;0.00;0.00;0.62;;;;;27.70;1.00;;;;;;2550965;56;1151;-85
2023/05/07 06:11:09;0.00;0.00;0.62;0.00;0.00;0.62;;;;;27.30;1.00;;;;;;2551062;56;1903;-85
2023/05/07 06:13:36;0.00;0.00;0.62;0.00;0.00;0.62;;;;;27.60;1.00;;;;;;2550902;56;1281;-85
2023/05/07 06:16:03;0.00;0.00;0.62;0.00;0.00;0.62;;;;;27.90;1.00;;;;;;2550998;56;1054;-85
2023/05/07 06:18:30;0.00;0.00;0.62;0.00;0.00;0.62;;;;;27.30;1.00;;;;;;2550989;56;1118;-84
2023/05/07 06:20:57;10384.00;0.03;18.61;0.00;0.00;0.62;;;;;27.20;1.00;;;;;;2551038;56;1129;-84
2023/05/07 06:23:24;0.00;0.00;0.62;0.00;0.00;0.62;;;;;27.30;1.00;;;;;;2550918;56;1434;-83
2023/05/07 06:25:51;0.00;0.00;0.62;0.00;0.00;0.62;;;;;27.00;1.00;;;;;;2551026;56;1059;-84
2023/05/07 06:28:19;116266.00;0.39;201.64;0.00;0.00;0.62;;;;;27.50;1.00;;;;;;2550940;56;981;-84
2023/05/07 06:30:46;146054.00;0.49;253.01;0.00;0.00;0.62;;;;;27.80;1.00;;;;;;2550985;56;1950;-85
2023/05/07 06:33:13;16865.00;0.06;29.84;0.00;0.00;0.62;;;;;28.10;1.00;;;;;;2551000;56;1378;-85
2023/05/07 06:35:40;105660.00;0.35;183.34;0.00;0.00;0.62;;;;;28.30;1.00;;;;;;2551091;56;1170;-84
2023/05/07 06:38:06;0.00;0.00;0.62;0.00;0.00;0.62;;;;;28.60;1.00;;;;;;2553189;56;959;-84
2023/05/07 06:40:33;0.00;0.00;0.62;0.00;0.00;0.62;;;;;28.50;1.00;;;;;;2550944;56;1054;-84
2023/05/07 06:43:00;15825.00;0.05;28.04;0.00;0.00;0.62;;;;;28.50;1.00;;;;;;2550737;56;1290;-84
2023/05/07 06:45:28;265.00;0.00;1.08;0.00;0.00;0.62;;;;;29.20;1.00;;;;;;2550857;56;1132;-85
2023/05/07 06:47:55;19608.00;0.07;34.59;0.00;0.00;0.62;;;;;28.70;1.00;;;;;;2550808;56;1141;-85
2023/05/07 06:50:22;80854.00;0.27;140.51;0.00;0.00;0.62;;;;;28.80;1.00;;;;;;2550871;56;1139;-86
2023/05/07 06:52:49;16291.00;0.05;28.85;0.00;0.00;0.62;;;;;29.10;1.00;;;;;;2550813;56;1895;-84
2023/05/07 06:55:16;263467.00;0.88;455.11;39960.00;0.13;69.82;;;;;28.80;1.00;;;;;;2550772;56;1143;-84
2023/05/07 06:57:42;27904.00;0.09;48.95;0.00;0.00;0.62;;;;;29.00;1.00;;;;;;2553041;56;2027;-85
2023/05/07 07:00:10;0.00;0.00;0.62;0.00;0.00;0.62;;;;;28.80;1.00;;;;;;2550823;56;1066;-84
2023/05/07 07:02:39;8256.00;0.03;14.93;0.00;0.00;0.62;;;;;29.00;1.00;;;;;;2550776;56;1104;-85
2023/05/07 07:05:07;43083.00;0.14;75.22;0.00;0.00;0.62;;;;;28.50;1.00;;;;;;2550684;56;1273;-84
2023/05/07 07:07:33;84914.00;0.28;147.52;0.00;0.00;0.62;;;;;28.10;1.00;;;;;;2550747;56;1112;-84
2023/05/07 07:10:00;0.00;0.00;0.62;0.00;0.00;0.62;;;;;27.70;1.00;;;;;;2550846;56;1100;-84
2023/05/07 07:12:28;167321.00;0.56;289.65;34708.00;0.12;60.73;;;;;27.50;1.00;;;;;;2550741;56;1940;-84
2023/05/07 07:14:55;72947.00;0.24;126.85;0.00;0.00;0.62;;;;;26.90;1.00;;;;;;2550794;56;1344;-84
2023/05/07 07:17:22;25958.00;0.09;45.59;0.00;0.00;0.62;;;;;27.60;1.00;;;;;;2552951;56;1216;-84
2023/05/07 07:19:50;25628.00;0.09;45.01;0.00;0.00;0.62;;;;;27.80;1.00;;;;;;2550721;56;1134;-84
2023/05/07 07:22:17;87119.00;0.29;151.33;22304.00;0.07;39.26;;;;;28.00;1.00;;;;;;2550807;56;1092;-85
2023/05/07 07:24:44;0.00;0.00;0.62;0.00;0.00;0.62;;;;;27.90;1.00;;;;;;2552742;56;1376;-85
2023/05/07 07:27:11;100056.00;0.33;173.67;0.00;0.00;0.62;;;;;29.30;1.00;;;;;;2550702;56;1080;-83
2023/05/07 07:29:38;102155.00;0.34;177.29;0.00;0.00;0.62;;;;;30.30;1.00;;;;;;2552866;56;1102;-86
2023/05/07 07:32:05;54971.00;0.18;95.78;0.00;0.00;0.62;;;;;30.50;1.00;;;;;;2550656;56;1948;-85
2023/05/07 07:34:32;61352.00;0.20;106.81;0.00;0.00;0.62;;;;;30.70;1.00;;;;;;2550475;56;1419;-84
2023/05/07 07:37:05;4120.00;0.01;7.76;0.00;0.00;0.62;;;;;30.40;1.00;;;;;;2550707;56;1085;-86
2023/05/07 07:39:31;153257.00;0.51;265.42;76621.00;0.26;133.20;;;;;31.80;1.00;;;;;;2550926;56;1278;-86
2023/05/07 07:41:58;372149.00;1.24;641.93;128379.00;0.43;222.53;;;;;31.30;1.00;;;;;;2552657;56;1062;-86
2023/05/07 07:44:26;37969.00;0.13;66.37;0.00;0.00;0.62;;;;;31.90;1.00;;;;;;2550694;56;1340;-88
2023/05/07 07:46:53;0.00;0.00;0.62;0.00;0.00;0.62;;;;;31.60;1.00;;;;;;2553039;56;1004;-87
2023/05/07 07:49:19;120512.00;0.40;208.97;0.00;0.00;0.62;;;;;30.80;1.00;;;;;;2550686;56;1146;-87
2023/05/07 07:51:46;24171.00;0.08;42.49;0.00;0.00;0.62;;;;;31.10;1.00;;;;;;2552893;56;1898;-87
2023/05/07 07:54:15;21506.00;0.07;37.88;0.00;0.00;0.62;;;;;30.50;1.00;;;;;;2550647;56;1343;-87
2023/05/07 07:56:42;18242.00;0.06;32.23;0.00;0.00;0.62;;;;;30.50;1.00;;;;;;2550716;56;1038;-87
2023/05/07 07:59:08;134422.00;0.45;232.95;0.00;0.00;0.62;;;;;29.90;1.00;;;;;;2550639;56;997;-88
2023/05/07 08:01:36;129216.00;0.43;223.98;0.00;0.00;0.62;;;;;29.20;1.00;;;;;;2552702;56;1525;-87
2023/05/07 08:04:05;73913.00;0.25;128.52;0.00;0.00;0.62;;;;;28.00;1.00;;;;;;2552776;56;1512;-86
2023/05/07 08:06:32;20919.00;0.07;36.86;0.00;0.00;0.62;;;;;27.40;1.00;;;;;;2552767;56;1574;-86
2023/05/07 08:08:59;0.00;0.00;0.62;0.00;0.00;0.62;;;;;27.10;1.00;;;;;;2550660;56;1120;-84
2023/05/07 08:11:27;103119.00;0.34;178.96;0.00;0.00;0.62;;;;;27.10;1.00;;;;;;2550468;56;1944;-84
2023/05/07 08:13:54;128122.00;0.43;222.09;0.00;0.00;0.62;;;;;27.30;1.00;;;;;;2550652;56;1273;-87
2023/05/07 08:16:21;22174.00;0.07;39.03;0.00;0.00;0.62;;;;;27.70;1.00;;;;;;2552743;56;1495;-87
2023/05/07 08:18:48;25236.00;0.08;44.34;0.00;0.00;0.62;;;;;27.80;1.00;;;;;;2550655;56;1128;-86
2023/05/07 08:21:15;12452.00;0.04;22.20;0.00;0.00;0.62;;;;;27.60;1.00;;;;;;2550708;56;1109;-86
2023/05/07 08:23:42;0.00;0.00;0.62;0.00;0.00;0.62;;;;;26.70;1.00;;;;;;2552707;56;1320;-86
2023/05/07 08:26:09;20330.00;0.07;35.84;0.00;0.00;0.62;;;;;26.80;1.00;;;;;;2550665;56;1034;-87
2023/05/07 08:28:37;188632.00;0.63;326.35;44662.00;0.15;77.95;;;;;27.00;1.00;;;;;;2550685;56;1124;-86
2023/05/07 08:31:04;1315.00;0.00;2.90;0.00;0.00;0.62;;;;;26.70;1.00;;;;;;2550728;56;1954;-86
2023/05/07 08:33:31;5282.00;0.02;9.77;0.00;0.00;0.62;;;;;26.70;1.00;;;;;;2550811;56;1315;-86
2023/05/07 08:35:58;85599.00;0.29;148.71;12902.00;0.04;22.98;;;;;27.80;1.00;;;;;;2550916;56;1069;-86
2023/05/07 08:38:24;0.00;0.00;0.62;0.00;0.00;0.62;;;;;27.70;1.00;;;;;;2553045;56;1258;-85
2023/05/07 08:40:51;0.00;0.00;0.62;0.00;0.00;0.62;;;;;27.90;1.00;;;;;;2550938;56;1096;-86
2023/05/07 08:43:20;0.00;0.00;0.62;0.00;0.00;0.62;;;;;28.60;1.00;;;;;;2551698;56;1265;-87
2023/05/07 08:45:54;55461.00;0.18;96.63;0.00;0.00;0.62;;;;;28.80;1.00;;;;;;2553189;56;1023;-87
2023/05/07 08:48:26;28619.00;0.10;50.19;0.00;0.00;0.62;;;;;28.60;1.00;;;;;;2550684;56;950;-88
2023/05/07 08:50:53;44995.00;0.15;78.53;0.00;0.00;0.62;;;;;28.80;1.00;;;;;;2550988;56;1110;-87
2023/05/07 08:53:23;0.00;0.00;0.62;0.00;0.00;0.62;;;;;28.80;1.00;;;;;;2552988;56;1911;-87
2023/05/07 08:55:51;0.00;0.00;0.62;0.00;0.00;0.62;;;;;29.40;1.00;;;;;;2553243;56;969;-87
2023/05/07 08:58:18;5499.00;0.02;10.15;0.00;0.00;0.62;;;;;29.40;1.00;;;;;;2553009;56;1045;-86
2023/05/07 09:00:45;44068.00;0.15;76.93;0.00;0.00;0.62;;;;;28.80;1.00;;;;;;2553120;56;916;-86
2023/05/07 09:03:14;101437.00;0.34;176.05;34688.00;0.12;60.70;;;;;28.50;1.00;;;;;;2550953;56;1362;-87
2023/05/07 09:05:40;0.00;0.00;0.62;0.00;0.00;0.62;;;;;28.90;1.00;;;;;;2553091;56;1153;-87
2023/05/07 09:08:08;0.00;0.00;0.62;0.00;0.00;0.62;;;;;29.30;1.00;;;;;;2553082;56;1517;-87
2023/05/07 09:10:35;12182.00;0.04;21.73;0.00;0.00;0.62;;;;;28.90;1.00;;;;;;2553036;56;1032;-87
2023/05/07 09:13:04;10727.00;0.04;19.21;0.00;0.00;0.62;;;;;28.60;1.00;;;;;;2550740;56;1946;-86
2023/05/07 09:15:30;21574.00;0.07;38.00;0.00;0.00;0.62;;;;;28.40;1.00;;;;;;2550809;56;1120;-86
2023/05/07 09:18:02;35045.00;0.12;61.31;0.00;0.00;0.62;;;;;28.30;1.00;;;;;;2550750;56;1108;-85
2023/05/07 09:20:31;0.00;0.00;0.62;0.00;0.00;0.62;;;;;28.10;1.00;;;;;;2550843;56;1092;-86
2023/05/07 09:22:58;0.00;0.00;0.62;0.00;0.00;0.62;;;;;28.20;1.00;;;;;;2552922;56;1372;-86
2023/05/07 09:25:30;24410.00;0.08;42.91;0.00;0.00;0.62;;;;;28.10;1.00;;;;;;2551021;56;1010;-84
2023/05/07 09:27:56;0.00;0.00;0.62;0.00;0.00;0.62;;;;;27.80;1.00;;;;;;2553194;56;978;-85
2023/05/07 09:30:23;0.00;0.00;0.62;0.00;0.00;0.62;;;;;27.80;1.00;;;;;;2552873;56;1142;-85
2023/05/07 09:32:50;0.00;0.00;0.62;0.00;0.00;0.62;;;;;28.30;1.00;;;;;;2552936;56;2024;-85
2023/05/07 09:35:18;0.00;0.00;0.62;0.00;0.00;0.62;;;;;28.70;1.00;;;;;;2552924;56;1009;-86
2023/05/07 09:37:47;187489.00;0.62;324.39;75265.00;0.25;130.86;;;;;28.80;1.00;;;;;;2550904;56;1059;-86
2023/05/07 09:40:22;0.00;0.00;0.62;0.00;0.00;0.62;;;;;28.50;1.00;;;;;;2550783;56;1104;-87
2023/05/07 09:42:50;17130.00;0.06;30.30;0.00;0.00;0.62;;;;;28.30;1.00;;;;;;2550746;56;1036;-85
2023/05/07 09:45:17;0.00;0.00;0.62;0.00;0.00;0.62;;;;;27.50;1.00;;;;;;2550941;56;1128;-86
2023/05/07 09:47:45;0.00;0.00;0.62;0.00;0.00;0.62;;;;;27.00;1.00;;;;;;2552934;56;1498;-87
2023/05/07 09:50:16;121940.00;0.41;211.43;27840.00;0.09;48.84;;;;;27.10;1.00;;;;;;2552881;56;1433;-86
2023/05/07 09:52:44;52249.00;0.17;91.08;0.00;0.00;0.62;;;;;26.90;1.00;;;;;;2550759;56;1932;-87
2023/05/07 09:55:13;19771.00;0.07;34.87;0.00;0.00;0.62;;;;;26.70;1.00;;;;;;2552957;56;1293;-85
2023/05/07 09:57:42;0.00;0.00;0.62;0.00;0.00;0.62;;;;;27.20;1.00;;;;;;2552984;56;2186;-86
2023/05/07 10:00:11;42441.00;0.14;74.11;0.00;0.00;0.62;;;;;27.00;1.00;;;;;;2550806;56;1084;-86
2023/05/07 10:02:46;0.00;0.00;0.62;0.00;0.00;0.62;;;;;27.10;1.00;;;;;;2550809;56;1080;-85
2023/05/07 10:05:14;39183.00;0.13;68.47;0.00;0.00;0.62;;;;;27.20;1.00;;;;;;2550786;56;1393;-86
2023/05/07 10:07:41;1776.00;0.01;3.70;0.00;0.00;0.62;;;;;27.30;1.00;;;;;;2552966;56;960;-87
2023/05/07 10:10:09;9641.00;0.03;17.33;0.00;0.00;0.62;;;;;26.90;1.00;;;;;;2550779;56;1127;-84
2023/05/07 10:12:38;44058.00;0.15;76.91;0.00;0.00;0.62;;;;;26.90;1.00;;;;;;2552942;56;2114;-85